Time;durP1;ratioP1;P1;durP2;ratioP2;P2;SDS_P1;SDS_P2;PMS_P1;PMS_P2;Temp;Humidity;BMP_temperature;BMP_pressure;BME280_temperature;BME280_humidity;BME280_pressure;Samples;Min_cycle;Max_cycle;Signal;HPM_P1;HPM_P2
2022/07/15 00:01:55;;;;;;;;;;;19.40;91.00;;;;;;5126404;28;19932;-68
2022/07/15 00:04:23;;;;;;;;;;;19.30;91.00;;;;;;5124364;28;19987;-69
2022/07/15 00:06:49;;;;;;;;;;;19.30;91.30;;;;;;5126421;28;19927;-68
2022/07/15 00:09:16;;;;;;;;;;;19.20;91.10;;;;;;5126050;28;20275;-68
2022/07/15 00:11:43;;;;;;;;;;;19.20;91.10;;;;;;5126174;28;19927;-68
2022/07/15 00:14:14;;;;;;;;;;;19.10;91.10;;;;;;5122792;28;19991;-68
2022/07/15 00:16:41;;;;;;;;;;;19.00;91.20;;;;;;5126326;28;19947;-68
2022/07/15 00:19:08;;;;;;;;;;;18.90;91.30;;;;;;5126113;28;19951;-69
2022/07/15 00:21:34;;;;;;;;;;;18.90;91.60;;;;;;5125895;28;19919;-69
2022/07/15 00:24:01;;;;;;;;;;;18.90;91.80;;;;;;5125453;28;19919;-68
2022/07/15 00:26:28;;;;;;;;;;;18.80;91.70;;;;;;5125950;28;19974;-68
2022/07/15 00:28:54;;;;;;;;;;;18.80;91.80;;;;;;5125653;28;19982;-68
2022/07/15 00:31:22;;;;;;;;;;;18.70;91.90;;;;;;5124989;28;19955;-68
2022/07/15 00:33:49;;;;;;;;;;;18.70;91.90;;;;;;5124931;28;19955;-68
2022/07/15 00:36:16;;;;;;;;;;;18.70;92.10;;;;;;5144992;27;19958;-68
2022/07/15 00:38:42;;;;;;;;;;;18.60;92.20;;;;;;5146277;27;19919;-68
2022/07/15 00:41:09;;;;;;;;;;;18.60;92.10;;;;;;5146393;27;19978;-68
2022/07/15 00:43:35;;;;;;;;;;;18.50;92.00;;;;;;5145339;27;19983;-68
2022/07/15 00:46:02;;;;;;;;;;;18.50;92.10;;;;;;5130117;27;19955;-68
2022/07/15 00:48:30;;;;;;;;;;;18.40;92.20;;;;;;5125448;28;19927;-68
2022/07/15 00:50:57;;;;;;;;;;;18.40;92.50;;;;;;5125614;28;20139;-68
2022/07/15 00:53:24;;;;;;;;;;;18.30;92.60;;;;;;5124497;28;19982;-68
2022/07/15 00:55:53;;;;;;;;;;;18.30;92.80;;;;;;5125151;28;19955;-68
2022/07/15 00:58:23;;;;;;;;;;;18.20;92.90;;;;;;5125457;28;19961;-68
2022/07/15 01:00:50;;;;;;;;;;;18.20;93.00;;;;;;5125387;28;19920;-67
2022/07/15 01:03:18;;;;;;;;;;;18.10;93.10;;;;;;5112156;28;19928;-69
2022/07/15 01:05:47;;;;;;;;;;;18.00;93.20;;;;;;5104918;28;19979;-68
2022/07/15 01:08:13;;;;;;;;;;;17.90;93.30;;;;;;5104795;28;19920;-68
2022/07/15 01:10:40;;;;;;;;;;;17.80;93.50;;;;;;5104810;28;20001;-69
2022/07/15 01:13:07;;;;;;;;;;;17.70;93.60;;;;;;5103687;28;20231;-68
2022/07/15 01:15:34;;;;;;;;;;;17.70;93.80;;;;;;5104273;28;19987;-68
2022/07/15 01:18:01;;;;;;;;;;;17.60;93.90;;;;;;5104631;28;19920;-69
2022/07/15 01:20:28;;;;;;;;;;;17.50;94.10;;;;;;5104740;28;19955;-68
2022/07/15 01:22:57;;;;;;;;;;;17.50;94.30;;;;;;5103870;28;19987;-68
2022/07/15 01:25:24;;;;;;;;;;;17.50;94.40;;;;;;5104490;28;19920;-68
2022/07/15 01:27:50;;;;;;;;;;;17.40;94.40;;;;;;5104348;28;19991;-68
2022/07/15 01:30:17;;;;;;;;;;;17.40;94.40;;;;;;5140722;27;19919;-68
2022/07/15 01:32:44;;;;;;;;;;;17.40;94.60;;;;;;5144471;27;19979;-70
2022/07/15 01:35:10;;;;;;;;;;;17.30;94.70;;;;;;5145176;27;19982;-70
2022/07/15 01:37:37;;;;;;;;;;;17.30;94.90;;;;;;5144948;27;19983;-70
2022/07/15 01:40:07;;;;;;;;;;;17.20;95.00;;;;;;5145308;27;19986;-71
2022/07/15 01:42:33;;;;;;;;;;;17.10;95.10;;;;;;5144009;27;19955;-70
2022/07/15 01:45:00;;;;;;;;;;;17.10;95.20;;;;;;5137545;27;19987;-70
2022/07/15 01:47:27;;;;;;;;;;;17.00;95.20;;;;;;5124153;28;19962;-70
2022/07/15 01:49:56;;;;;;;;;;;17.00;95.30;;;;;;5124286;28;20204;-70
2022/07/15 01:52:24;;;;;;;;;;;17.00;95.40;;;;;;5123763;28;19941;-70
2022/07/15 01:54:54;;;;;;;;;;;17.00;95.50;;;;;;5142895;27;19919;-70
2022/07/15 01:57:22;;;;;;;;;;;17.00;95.50;;;;;;5144876;27;19920;-70
2022/07/15 01:59:49;;;;;;;;;;;16.90;95.50;;;;;;5145089;27;19990;-70
2022/07/15 02:02:16;;;;;;;;;;;16.80;95.50;;;;;;5144228;27;19923;-70
2022/07/15 02:04:47;;;;;;;;;;;16.80;95.60;;;;;;5142112;27;19926;-71
2022/07/15 02:07:13;;;;;;;;;;;16.70;95.60;;;;;;5144400;27;19982;-70
2022/07/15 02:09:40;;;;;;;;;;;16.60;95.70;;;;;;5144344;27;19969;-70
2022/07/15 02:12:07;;;;;;;;;;;16.50;95.80;;;;;;5144602;27;19920;-70
2022/07/15 02:14:35;;;;;;;;;;;16.50;95.80;;;;;;5144558;27;19954;-70
2022/07/15 02:17:02;;;;;;;;;;;16.50;95.90;;;;;;5144588;27;19977;-70
2022/07/15 02:19:29;;;;;;;;;;;16.50;96.00;;;;;;5126985;28;19951;-70
2022/07/15 02:21:55;;;;;;;;;;;16.40;96.00;;;;;;5124079;28;20132;-71
2022/07/15 02:24:22;;;;;;;;;;;16.40;96.00;;;;;;5123419;28;19951;-70
2022/07/15 02:26:49;;;;;;;;;;;16.40;96.10;;;;;;5103517;28;19983;-70
2022/07/15 02:29:16;;;;;;;;;;;16.30;96.10;;;;;;5103594;28;20104;-71
2022/07/15 02:31:44;;;;;;;;;;;16.30;96.20;;;;;;5103568;28;19920;-70
2022/07/15 02:34:11;;;;;;;;;;;16.20;96.20;;;;;;5102505;28;19956;-70
2022/07/15 02:36:38;;;;;;;;;;;16.10;96.20;;;;;;5103177;28;19962;-70
2022/07/15 02:39:04;;;;;;;;;;;16.10;96.30;;;;;;5111359;28;19928;-69
2022/07/15 02:41:31;;;;;;;;;;;16.00;96.40;;;;;;5144538;28;20211;-70
2022/07/15 02:43:59;;;;;;;;;;;16.00;96.40;;;;;;5143713;28;19978;-70
2022/07/15 02:46:25;;;;;;;;;;;15.90;96.60;;;;;;5125111;28;19942;-70
2022/07/15 02:48:54;;;;;;;;;;;15.80;96.70;;;;;;5123784;28;19942;-69
2022/07/15 02:51:20;;;;;;;;;;;15.80;96.80;;;;;;5123822;28;20135;-70
2022/07/15 02:53:47;;;;;;;;;;;15.70;96.90;;;;;;5122983;28;19943;-70
2022/07/15 02:56:13;;;;;;;;;;;15.70;97.10;;;;;;5126425;28;19961;-70
2022/07/15 02:58:40;;;;;;;;;;;15.60;97.30;;;;;;5127743;28;19955;-70
2022/07/15 03:01:07;;;;;;;;;;;15.50;97.50;;;;;;5137229;27;19927;-70
2022/07/15 03:03:33;;;;;;;;;;;15.50;97.80;;;;;;5120310;27;20251;-70
2022/07/15 03:06:01;;;;;;;;;;;15.40;97.80;;;;;;5104229;28;19924;-69
2022/07/15 03:08:28;;;;;;;;;;;15.40;97.80;;;;;;5124681;27;19998;-70
2022/07/15 03:10:55;;;;;;;;;;;15.40;97.80;;;;;;5148167;27;19983;-70
2022/07/15 03:13:23;;;;;;;;;;;15.30;97.80;;;;;;5147523;27;19920;-70
2022/07/15 03:15:49;;;;;;;;;;;15.30;98.00;;;;;;5147999;27;19919;-71
2022/07/15 03:18:16;;;;;;;;;;;15.20;98.00;;;;;;5140638;27;19983;-70
2022/07/15 03:20:42;;;;;;;;;;;15.20;98.10;;;;;;5127522;28;19920;-70
2022/07/15 03:23:11;;;;;;;;;;;15.20;98.20;;;;;;5126309;28;19923;-70
2022/07/15 03:25:38;;;;;;;;;;;15.10;98.20;;;;;;5127276;28;19943;-69
2022/07/15 03:28:05;;;;;;;;;;;15.00;98.40;;;;;;5126845;28;19956;-70
2022/07/15 03:30:31;;;;;;;;;;;15.00;98.50;;;;;;5126937;28;20204;-70
2022/07/15 03:32:58;;;;;;;;;;;15.00;98.60;;;;;;5126299;28;19994;-70
2022/07/15 03:35:24;;;;;;;;;;;14.90;98.60;;;;;;5127023;28;19955;-70
2022/07/15 03:37:51;;;;;;;;;;;14.90;98.70;;;;;;5141024;27;19954;-70
2022/07/15 03:40:19;;;;;;;;;;;14.80;98.80;;;;;;5147280;27;20202;-69
2022/07/15 03:42:46;;;;;;;;;;;14.80;98.90;;;;;;5146871;27;19926;-70
2022/07/15 03:45:12;;;;;;;;;;;14.70;99.10;;;;;;5147292;27;19939;-70
2022/07/15 03:47:40;;;;;;;;;;;14.80;99.30;;;;;;5147172;27;19942;-70
2022/07/15 03:50:08;;;;;;;;;;;14.70;99.20;;;;;;5147396;27;19919;-70
2022/07/15 03:52:35;;;;;;;;;;;14.70;99.30;;;;;;5146647;27;19923;-70
2022/07/15 03:55:01;;;;;;;;;;;14.70;99.40;;;;;;5147051;27;19919;-70
2022/07/15 03:57:29;;;;;;;;;;;14.70;99.50;;;;;;5147359;27;19919;-70
2022/07/15 03:59:56;;;;;;;;;;;14.60;99.60;;;;;;5146961;27;19955;-69
2022/07/15 04:02:22;;;;;;;;;;;14.60;99.80;;;;;;5139746;27;19920;-70
2022/07/15 04:04:52;;;;;;;;;;;14.50;99.90;;;;;;5124837;28;19998;-70
2022/07/15 04:07:18;;;;;;;;;;;14.40;99.90;;;;;;5126179;27;19928;-71
2022/07/15 04:09:45;;;;;;;;;;;14.40;99.90;;;;;;5126396;28;19993;-70
2022/07/15 04:12:12;;;;;;;;;;;14.40;99.90;;;;;;5125452;28;19959;-71
2022/07/15 04:14:40;;;;;;;;;;;14.30;99.90;;;;;;5125931;28;19946;-70
2022/07/15 04:17:06;;;;;;;;;;;14.20;99.90;;;;;;5126325;28;19986;-70
2022/07/15 04:19:33;;;;;;;;;;;14.20;99.90;;;;;;5107829;28;19920;-70
2022/07/15 04:22:00;;;;;;;;;;;14.20;99.90;;;;;;5105780;28;19959;-70
2022/07/15 04:24:26;;;;;;;;;;;14.20;99.90;;;;;;5104783;28;19927;-70
2022/07/15 04:26:53;;;;;;;;;;;14.20;99.90;;;;;;5105431;28;20232;-69
2022/07/15 04:29:20;;;;;;;;;;;14.30;99.90;;;;;;5105253;28;19927;-69
2022/07/15 04:31:48;;;;;;;;;;;14.30;99.90;;;;;;5105347;28;19952;-69
2022/07/15 04:34:14;;;;;;;;;;;14.30;99.90;;;;;;5104648;28;19970;-70
2022/07/15 04:36:41;;;;;;;;;;;14.30;99.90;;;;;;5104984;28;19958;-69
2022/07/15 04:39:08;;;;;;;;;;;14.30;99.90;;;;;;5111843;28;19984;-69
2022/07/15 04:41:34;;;;;;;;;;;14.40;99.90;;;;;;5125668;28;19951;-70
2022/07/15 04:44:01;;;;;;;;;;;14.40;99.90;;;;;;5124770;28;19947;-70
2022/07/15 04:46:28;;;;;;;;;;;14.50;99.90;;;;;;5125566;28;19990;-70
2022/07/15 04:51:40;;;;;;;;;;;14.50;99.90;;;;;;5125514;28;19927;-69
2022/07/15 04:54:06;;;;;;;;;;;14.60;99.90;;;;;;5124520;28;19983;-70
2022/07/15 04:56:33;;;;;;;;;;;14.60;99.90;;;;;;5125166;28;19927;-71
2022/07/15 04:58:59;;;;;;;;;;;14.70;99.90;;;;;;5125548;28;19982;-70
2022/07/15 05:01:26;;;;;;;;;;;14.80;99.90;;;;;;5125328;28;19919;-69
2022/07/15 05:03:53;;;;;;;;;;;14.80;99.90;;;;;;5124401;28;19980;-68
2022/07/15 05:06:21;;;;;;;;;;;14.90;99.90;;;;;;5123505;28;19927;-68
2022/07/15 05:08:47;;;;;;;;;;;14.90;99.90;;;;;;5124941;28;19920;-68
2022/07/15 05:11:14;;;;;;;;;;;15.10;99.90;;;;;;5125325;28;20223;-70
2022/07/15 05:13:41;;;;;;;;;;;15.20;99.90;;;;;;5124355;28;19955;-68
2022/07/15 05:16:08;;;;;;;;;;;15.30;99.90;;;;;;5124768;28;19920;-68
2022/07/15 05:18:35;;;;;;;;;;;15.40;99.90;;;;;;5124169;28;19951;-68
2022/07/15 05:21:02;;;;;;;;;;;15.50;99.90;;;;;;5124978;28;20258;-69
2022/07/15 05:23:30;;;;;;;;;;;15.60;99.90;;;;;;5124059;28;20203;-68
2022/07/15 05:25:57;;;;;;;;;;;15.60;99.90;;;;;;5124840;28;19951;-70
2022/07/15 05:28:24;;;;;;;;;;;15.70;99.90;;;;;;5124882;28;19958;-68
2022/07/15 05:30:50;;;;;;;;;;;15.80;99.90;;;;;;5124821;28;19919;-68
2022/07/15 05:33:17;;;;;;;;;;;15.90;99.90;;;;;;5123788;28;19987;-68
2022/07/15 05:35:44;;;;;;;;;;;16.00;99.90;;;;;;5124648;28;19987;-68
2022/07/15 05:38:11;;;;;;;;;;;16.00;99.90;;;;;;5144844;27;19966;-68
2022/07/15 05:40:39;;;;;;;;;;;16.10;99.90;;;;;;5145027;27;19957;-68
2022/07/15 05:43:07;;;;;;;;;;;16.20;99.90;;;;;;5144599;27;19920;-68
2022/07/15 05:45:33;;;;;;;;;;;16.30;99.90;;;;;;5144693;27;19919;-67
2022/07/15 05:48:00;;;;;;;;;;;16.30;99.90;;;;;;5144593;27;19919;-67
2022/07/15 05:50:26;;;;;;;;;;;16.40;99.90;;;;;;5140027;27;19991;-67
2022/07/15 05:52:53;;;;;;;;;;;16.50;99.90;;;;;;5123465;28;19955;-69
2022/07/15 05:55:20;;;;;;;;;;;16.50;99.90;;;;;;5124287;28;19920;-69
2022/07/15 05:57:48;;;;;;;;;;;16.60;99.90;;;;;;5124648;28;19926;-69
2022/07/15 06:00:15;;;;;;;;;;;16.80;99.90;;;;;;5124444;28;19986;-70
2022/07/15 06:02:42;;;;;;;;;;;16.90;99.90;;;;;;5123059;28;19990;-69
2022/07/15 06:05:09;;;;;;;;;;;17.00;99.90;;;;;;5124059;28;19919;-69
2022/07/15 06:07:36;;;;;;;;;;;17.10;99.90;;;;;;5121406;28;20271;-69
2022/07/15 06:10:03;;;;;;;;;;;17.20;99.90;;;;;;5120385;28;19919;-70
2022/07/15 06:12:29;;;;;;;;;;;17.30;99.90;;;;;;5123334;28;19923;-69
2022/07/15 06:14:57;;;;;;;;;;;17.30;99.90;;;;;;5124070;28;19920;-69
2022/07/15 06:17:24;;;;;;;;;;;17.40;99.90;;;;;;5106910;28;19920;-69
2022/07/15 06:19:50;;;;;;;;;;;17.50;99.90;;;;;;5132843;27;19926;-69
2022/07/15 06:22:17;;;;;;;;;;;17.60;99.90;;;;;;5143714;27;19974;-69
2022/07/15 06:24:44;;;;;;;;;;;17.60;99.90;;;;;;5130932;28;19958;-69
2022/07/15 06:27:11;;;;;;;;;;;17.70;99.40;;;;;;5122513;28;19947;-69
2022/07/15 06:29:37;;;;;;;;;;;17.70;99.60;;;;;;5123791;28;19920;-69
2022/07/15 06:32:07;;;;;;;;;;;17.90;99.70;;;;;;5127808;28;19970;-69
2022/07/15 06:34:34;;;;;;;;;;;18.00;99.00;;;;;;5141698;27;19987;-70
2022/07/15 06:37:00;;;;;;;;;;;18.10;98.10;;;;;;5128031;28;19927;-69
2022/07/15 06:39:27;;;;;;;;;;;18.20;97.90;;;;;;5123369;28;19920;-69
2022/07/15 06:41:53;;;;;;;;;;;18.30;97.90;;;;;;5107489;28;19970;-69
2022/07/15 06:44:20;;;;;;;;;;;18.30;97.60;;;;;;5123224;28;19920;-69
2022/07/15 06:46:47;;;;;;;;;;;18.30;97.50;;;;;;5127300;27;20255;-69
2022/07/15 06:49:15;;;;;;;;;;;18.30;96.90;;;;;;5127212;28;19966;-68
2022/07/15 06:51:42;;;;;;;;;;;18.30;97.30;;;;;;5119880;28;20180;-69
2022/07/15 06:54:08;;;;;;;;;;;18.40;97.10;;;;;;5126815;28;19986;-70
2022/07/15 06:56:35;;;;;;;;;;;18.50;96.50;;;;;;5127400;28;19986;-70
2022/07/15 06:59:02;;;;;;;;;;;18.60;95.70;;;;;;5130963;27;19919;-68
2022/07/15 07:01:28;;;;;;;;;;;18.70;95.50;;;;;;5131077;27;19951;-67
2022/07/15 07:03:55;;;;;;;;;;;18.70;95.20;;;;;;5126447;28;19991;-68
2022/07/15 07:06:23;;;;;;;;;;;18.70;95.00;;;;;;5127280;28;20242;-68
2022/07/15 07:08:52;;;;;;;;;;;18.70;95.30;;;;;;5127054;28;19987;-68
2022/07/15 07:11:18;;;;;;;;;;;18.70;95.50;;;;;;5127438;27;19928;-68
2022/07/15 07:13:45;;;;;;;;;;;18.80;95.80;;;;;;5126248;28;19999;-68
2022/07/15 07:16:12;;;;;;;;;;;19.00;95.30;;;;;;5118359;28;19965;-68
2022/07/15 07:18:39;;;;;;;;;;;19.10;94.80;;;;;;5117195;28;19947;-68
2022/07/15 07:21:05;;;;;;;;;;;19.20;93.70;;;;;;5126907;28;19986;-69
2022/07/15 07:23:34;;;;;;;;;;;19.30;94.00;;;;;;5124038;28;19927;-69
2022/07/15 07:26:00;;;;;;;;;;;19.30;93.20;;;;;;5126881;28;19951;-68
2022/07/15 07:28:27;;;;;;;;;;;19.30;93.70;;;;;;5126749;28;19951;-68
2022/07/15 07:30:54;;;;;;;;;;;19.40;92.90;;;;;;5126849;28;19920;-69
2022/07/15 07:33:21;;;;;;;;;;;19.30;92.80;;;;;;5125828;28;19919;-67
2022/07/15 07:35:48;;;;;;;;;;;19.40;93.30;;;;;;5126406;28;19958;-68
2022/07/15 07:38:14;;;;;;;;;;;19.50;92.70;;;;;;5126733;28;19962;-68
2022/07/15 07:40:42;;;;;;;;;;;19.60;92.90;;;;;;5136027;27;20269;-67
2022/07/15 07:43:09;;;;;;;;;;;19.70;92.10;;;;;;5146168;27;19958;-68
2022/07/15 07:45:36;;;;;;;;;;;19.80;92.80;;;;;;5146935;27;19926;-68
2022/07/15 07:48:02;;;;;;;;;;;19.80;92.40;;;;;;5147186;27;19920;-68
2022/07/15 07:50:29;;;;;;;;;;;19.90;92.80;;;;;;5146987;27;19919;-68
2022/07/15 07:52:56;;;;;;;;;;;20.00;93.70;;;;;;5146472;27;19951;-67
2022/07/15 07:55:23;;;;;;;;;;;20.10;93.10;;;;;;5129522;27;20235;-68
2022/07/15 07:57:52;;;;;;;;;;;20.30;93.00;;;;;;5126077;28;20195;-67
2022/07/15 08:00:19;;;;;;;;;;;20.40;92.50;;;;;;5126135;28;20154;-68
2022/07/15 08:02:46;;;;;;;;;;;20.50;93.40;;;;;;5122442;28;19955;-67
2022/07/15 08:05:13;;;;;;;;;;;20.50;92.70;;;;;;5125911;28;19983;-69
2022/07/15 08:07:41;;;;;;;;;;;20.50;92.60;;;;;;5123134;28;19919;-68
2022/07/15 08:10:09;;;;;;;;;;;20.60;92.60;;;;;;5126351;28;20235;-68
2022/07/15 08:12:36;;;;;;;;;;;20.50;92.30;;;;;;5125577;28;19959;-68
2022/07/15 08:15:04;;;;;;;;;;;20.40;92.50;;;;;;5125865;28;19920;-68
2022/07/15 08:17:31;;;;;;;;;;;20.40;92.30;;;;;;5124610;28;20042;-67
2022/07/15 08:19:58;;;;;;;;;;;20.40;92.40;;;;;;5124409;28;19983;-68
2022/07/15 08:22:25;;;;;;;;;;;20.40;92.50;;;;;;5131511;27;19919;-69
2022/07/15 08:24:51;;;;;;;;;;;20.40;92.10;;;;;;5145711;27;19990;-72
2022/07/15 08:27:18;;;;;;;;;;;20.60;92.60;;;;;;5146236;27;19926;-69
2022/07/15 08:29:46;;;;;;;;;;;20.70;91.80;;;;;;5136428;27;19959;-68
2022/07/15 08:32:14;;;;;;;;;;;20.80;91.30;;;;;;5144548;27;19969;-69
2022/07/15 08:34:41;;;;;;;;;;;20.80;91.20;;;;;;5146097;27;19926;-68
2022/07/15 08:37:09;;;;;;;;;;;20.70;91.50;;;;;;5143805;27;20203;-68
2022/07/15 08:39:36;;;;;;;;;;;20.70;91.60;;;;;;5146109;27;19926;-68
2022/07/15 08:42:03;;;;;;;;;;;20.70;91.90;;;;;;5146410;27;19982;-68
2022/07/15 08:44:30;;;;;;;;;;;20.60;91.40;;;;;;5141990;27;19951;-69
2022/07/15 08:46:58;;;;;;;;;;;20.50;91.10;;;;;;5125225;28;19983;-68
2022/07/15 08:49:29;;;;;;;;;;;20.40;91.60;;;;;;5124638;28;20104;-69
2022/07/15 08:51:57;;;;;;;;;;;20.40;91.80;;;;;;5124716;28;20203;-69
2022/07/15 08:54:24;;;;;;;;;;;20.40;91.40;;;;;;5124139;28;20232;-69
2022/07/15 08:56:50;;;;;;;;;;;20.30;91.50;;;;;;5130459;27;20144;-69
2022/07/15 08:59:17;;;;;;;;;;;20.40;91.60;;;;;;5145724;27;20204;-69
2022/07/15 09:01:45;;;;;;;;;;;20.50;91.70;;;;;;5145357;27;19924;-70
2022/07/15 09:04:12;;;;;;;;;;;20.60;91.50;;;;;;5143825;27;19986;-69
2022/07/15 09:06:41;;;;;;;;;;;20.70;91.50;;;;;;5144427;27;20030;-69
2022/07/15 09:09:28;;;;;;;;;;;20.90;90.90;;;;;;5144725;27;19994;-69
2022/07/15 09:11:55;;;;;;;;;;;21.00;91.00;;;;;;5131430;27;19978;-70
2022/07/15 09:14:22;;;;;;;;;;;21.10;91.10;;;;;;5124417;28;19919;-70
2022/07/15 09:16:49;;;;;;;;;;;21.20;90.80;;;;;;5125179;28;19919;-69
2022/07/15 09:19:16;;;;;;;;;;;21.40;91.30;;;;;;5125075;28;19919;-69
2022/07/15 09:21:44;;;;;;;;;;;21.50;90.50;;;;;;5125098;28;20223;-69
2022/07/15 09:24:18;;;;;;;;;;;21.60;89.80;;;;;;5124309;28;20160;-69
2022/07/15 09:26:44;;;;;;;;;;;21.60;89.40;;;;;;5118836;28;19927;-69
2022/07/15 09:34:59;;;;;;;;;;;21.30;90.10;;;;;;5125118;27;19922;-69
2022/07/15 09:37:27;;;;;;;;;;;21.20;89.60;;;;;;5124021;28;20131;-69
2022/07/15 09:39:54;;;;;;;;;;;21.40;90.40;;;;;;5124121;28;19955;-68
2022/07/15 09:42:22;;;;;;;;;;;21.50;89.90;;;;;;5123243;28;20385;-68
2022/07/15 09:44:50;;;;;;;;;;;21.70;89.60;;;;;;5104058;28;19927;-68
2022/07/15 09:47:18;;;;;;;;;;;21.80;90.00;;;;;;5106395;28;19926;-68
2022/07/15 09:49:45;;;;;;;;;;;21.80;89.30;;;;;;5123683;28;20184;-69
2022/07/15 09:52:14;;;;;;;;;;;21.80;89.40;;;;;;5119870;28;19934;-69
2022/07/15 09:54:43;;;;;;;;;;;21.70;88.80;;;;;;5114927;28;19920;-69
2022/07/15 09:57:11;;;;;;;;;;;21.60;89.10;;;;;;5122732;28;19919;-68
2022/07/15 09:59:38;;;;;;;;;;;21.60;89.30;;;;;;5118499;28;20275;-68
2022/07/15 10:02:05;;;;;;;;;;;21.70;89.20;;;;;;5118615;28;19928;-68
2022/07/15 10:04:32;;;;;;;;;;;21.60;89.40;;;;;;5121528;28;19919;-68
2022/07/15 10:07:00;;;;;;;;;;;21.70;89.20;;;;;;5121747;28;19927;-68
2022/07/15 10:09:28;;;;;;;;;;;21.80;89.20;;;;;;5123664;28;19955;-68
2022/07/15 10:11:57;;;;;;;;;;;22.10;90.00;;;;;;5115190;28;20078;-71
2022/07/15 10:14:29;;;;;;;;;;;22.30;89.90;;;;;;5102958;28;19958;-68
2022/07/15 10:17:03;;;;;;;;;;;22.70;88.00;;;;;;5109988;28;19920;-69
2022/07/15 10:19:35;;;;;;;;;;;22.90;86.00;;;;;;5124025;28;19924;-68
2022/07/15 10:22:05;;;;;;;;;;;22.70;86.40;;;;;;5126305;28;19920;-67
2022/07/15 10:24:38;;;;;;;;;;;22.80;86.40;;;;;;5122395;28;19919;-69
2022/07/15 10:27:11;;;;;;;;;;;22.70;86.30;;;;;;5123290;28;19948;-69
2022/07/15 10:29:38;;;;;;;;;;;22.60;86.40;;;;;;5123267;28;19967;-67
2022/07/15 10:32:05;;;;;;;;;;;22.40;86.40;;;;;;5123258;28;20089;-69
2022/07/15 10:34:33;;;;;;;;;;;22.20;85.80;;;;;;5123364;28;19920;-68
2022/07/15 10:37:04;;;;;;;;;;;22.10;87.50;;;;;;5123738;28;19951;-69
2022/07/15 10:39:45;;;;;;;;;;;22.10;86.20;;;;;;5124010;28;19986;-69
2022/07/15 10:42:13;;;;;;;;;;;22.20;87.10;;;;;;5123211;28;19951;-68
2022/07/15 10:44:49;;;;;;;;;;;22.30;86.90;;;;;;5116680;28;19926;-69
2022/07/15 10:47:19;;;;;;;;;;;22.50;86.10;;;;;;5103661;28;19948;-69
2022/07/15 10:49:47;;;;;;;;;;;22.60;86.80;;;;;;5103637;28;19920;-69
2022/07/15 10:52:14;;;;;;;;;;;22.80;86.00;;;;;;5106506;28;19991;-69
2022/07/15 10:54:42;;;;;;;;;;;23.00;84.40;;;;;;5122925;28;19958;-69
2022/07/15 10:57:10;;;;;;;;;;;23.10;84.50;;;;;;5123533;28;19957;-69
2022/07/15 10:59:41;;;;;;;;;;;23.10;84.20;;;;;;5123767;28;19986;-68
2022/07/15 11:02:12;;;;;;;;;;;23.20;84.60;;;;;;5123567;28;19919;-69
2022/07/15 11:04:38;;;;;;;;;;;23.40;85.20;;;;;;5104372;28;19988;-69
2022/07/15 11:07:24;;;;;;;;;;;23.70;84.30;;;;;;5112480;28;19919;-70
2022/07/15 11:09:51;;;;;;;;;;;24.00;84.60;;;;;;5124375;28;19983;-69
2022/07/15 11:12:18;;;;;;;;;;;24.20;82.90;;;;;;5104089;28;19920;-70
2022/07/15 11:14:48;;;;;;;;;;;24.40;82.50;;;;;;5103134;28;19958;-71
2022/07/15 11:17:17;;;;;;;;;;;24.40;82.60;;;;;;5105983;28;19926;-71
2022/07/15 11:19:47;;;;;;;;;;;24.40;82.40;;;;;;5123965;27;20234;-70
2022/07/15 11:22:13;;;;;;;;;;;24.30;82.00;;;;;;5126949;28;20131;-70
2022/07/15 11:24:40;;;;;;;;;;;24.10;82.50;;;;;;5126899;28;20175;-71
2022/07/15 11:27:07;;;;;;;;;;;23.80;83.30;;;;;;5124281;28;19928;-71
2022/07/15 11:29:43;;;;;;;;;;;23.50;83.70;;;;;;5123684;28;20219;-70
2022/07/15 11:32:12;;;;;;;;;;;23.30;83.40;;;;;;5126968;27;20015;-68
2022/07/15 11:34:43;;;;;;;;;;;23.40;85.10;;;;;;5122388;27;19924;-69
2022/07/15 11:37:10;;;;;;;;;;;23.60;83.90;;;;;;5123012;28;20242;-68
2022/07/15 11:39:37;;;;;;;;;;;23.70;82.20;;;;;;5125043;28;20105;-68
2022/07/15 11:44:48;;;;;;;;;;;23.80;81.60;;;;;;5116180;28;19930;-69
2022/07/15 11:47:16;;;;;;;;;;;24.00;81.50;;;;;;5125003;27;19919;-69
2022/07/15 11:49:43;;;;;;;;;;;24.30;83.10;;;;;;5125007;28;19927;-69
2022/07/15 11:52:11;;;;;;;;;;;24.40;81.60;;;;;;5124481;28;19919;-68
2022/07/15 11:54:38;;;;;;;;;;;24.40;82.30;;;;;;5116865;28;19951;-69
2022/07/15 11:57:06;;;;;;;;;;;24.50;83.20;;;;;;5125570;28;19983;-69
2022/07/15 11:59:33;;;;;;;;;;;24.30;83.30;;;;;;5124171;28;19928;-69
2022/07/15 12:02:00;;;;;;;;;;;23.90;84.20;;;;;;5126723;27;19919;-68
2022/07/15 12:04:29;;;;;;;;;;;23.80;83.50;;;;;;5122344;28;19920;-68
2022/07/15 12:06:56;;;;;;;;;;;23.80;83.40;;;;;;5126412;28;19919;-69
2022/07/15 12:09:22;;;;;;;;;;;23.60;82.40;;;;;;5125817;28;19986;-69
2022/07/15 12:11:49;;;;;;;;;;;23.50;82.70;;;;;;5124250;28;20294;-68
2022/07/15 12:14:19;;;;;;;;;;;23.70;84.90;;;;;;5124828;28;19962;-69
2022/07/15 12:16:46;;;;;;;;;;;24.00;82.90;;;;;;5123290;27;19967;-69
2022/07/15 12:19:14;;;;;;;;;;;24.40;83.40;;;;;;5120535;28;20419;-71
2022/07/15 12:21:43;;;;;;;;;;;24.80;81.40;;;;;;5122858;28;20065;-69
2022/07/15 12:24:10;;;;;;;;;;;25.30;81.40;;;;;;5124852;28;19920;-68
2022/07/15 12:26:39;;;;;;;;;;;25.70;80.80;;;;;;5125686;27;19988;-69
2022/07/15 12:29:08;;;;;;;;;;;25.80;78.60;;;;;;5122990;28;19920;-68
2022/07/15 12:31:35;;;;;;;;;;;26.00;78.10;;;;;;5124350;27;19965;-68
2022/07/15 12:34:02;;;;;;;;;;;26.10;78.50;;;;;;5117890;28;19920;-68
2022/07/15 12:36:29;;;;;;;;;;;26.20;76.20;;;;;;5122393;28;19991;-68
2022/07/15 12:39:05;;;;;;;;;;;26.20;77.60;;;;;;5121790;28;19963;-68
2022/07/15 12:41:33;;;;;;;;;;;26.10;77.90;;;;;;5116165;28;19920;-68
2022/07/15 12:44:01;;;;;;;;;;;25.70;77.20;;;;;;5122012;28;20127;-68
2022/07/15 12:46:46;;;;;;;;;;;25.20;78.20;;;;;;5124777;27;19924;-67
2022/07/15 12:49:13;;;;;;;;;;;25.00;79.20;;;;;;5123505;27;19951;-68
2022/07/15 12:51:39;;;;;;;;;;;24.90;79.50;;;;;;5126163;27;19919;-68
2022/07/15 12:54:07;;;;;;;;;;;25.00;80.70;;;;;;5124671;28;19979;-68
2022/07/15 12:56:49;;;;;;;;;;;25.20;79.90;;;;;;5124518;28;19920;-68
2022/07/15 12:59:16;;;;;;;;;;;25.00;79.00;;;;;;5125007;28;19920;-68
2022/07/15 13:01:44;;;;;;;;;;;25.00;78.80;;;;;;5124478;28;19945;-68
2022/07/15 13:04:11;;;;;;;;;;;25.00;79.20;;;;;;5123902;28;19955;-68
2022/07/15 13:06:37;;;;;;;;;;;24.90;79.60;;;;;;5125642;27;19920;-68
2022/07/15 13:09:04;;;;;;;;;;;24.80;80.00;;;;;;5124355;28;19927;-68
2022/07/15 13:11:32;;;;;;;;;;;24.70;80.10;;;;;;5131265;27;20200;-67
2022/07/15 13:13:59;;;;;;;;;;;24.80;79.00;;;;;;5123798;28;19920;-66
2022/07/15 13:16:25;;;;;;;;;;;25.10;78.90;;;;;;5122311;28;20224;-68
2022/07/15 13:18:52;;;;;;;;;;;25.20;78.30;;;;;;5124695;28;19951;-69
2022/07/15 13:21:18;;;;;;;;;;;25.20;78.80;;;;;;5114735;28;19927;-68
2022/07/15 13:23:45;;;;;;;;;;;25.40;80.10;;;;;;5124076;28;19927;-68
2022/07/15 13:26:12;;;;;;;;;;;25.50;78.10;;;;;;5124174;28;19921;-68
2022/07/15 13:28:40;;;;;;;;;;;25.70;78.50;;;;;;5124310;28;20212;-68
2022/07/15 13:31:07;;;;;;;;;;;25.60;78.10;;;;;;5123885;28;20110;-68
2022/07/15 13:33:33;;;;;;;;;;;25.60;78.30;;;;;;5120500;28;20131;-68
2022/07/15 13:36:03;;;;;;;;;;;25.70;77.30;;;;;;5123859;28;19958;-68
2022/07/15 13:38:30;;;;;;;;;;;25.90;77.60;;;;;;5125878;27;19919;-68
2022/07/15 13:40:56;;;;;;;;;;;26.10;79.30;;;;;;5125703;27;20003;-68
2022/07/15 13:43:23;;;;;;;;;;;26.50;75.80;;;;;;5122761;28;19954;-68
2022/07/15 13:45:51;;;;;;;;;;;26.90;77.30;;;;;;5124351;28;19947;-67
2022/07/15 13:48:18;;;;;;;;;;;27.30;75.00;;;;;;5124259;28;19926;-68
2022/07/15 13:53:28;;;;;;;;;;;27.20;72.90;;;;;;5120915;28;20122;-68
2022/07/15 13:55:55;;;;;;;;;;;26.90;73.70;;;;;;5123838;28;20006;-68
2022/07/15 13:58:22;;;;;;;;;;;27.00;74.00;;;;;;5124337;28;19926;-67
2022/07/15 14:00:49;;;;;;;;;;;27.10;73.70;;;;;;5115196;28;19920;-67
2022/07/15 14:03:17;;;;;;;;;;;27.00;74.20;;;;;;5123296;28;19920;-68
2022/07/15 14:05:44;;;;;;;;;;;26.90;73.20;;;;;;5123892;28;19962;-67
2022/07/15 14:08:11;;;;;;;;;;;26.60;73.90;;;;;;5118777;28;19927;-68
2022/07/15 14:10:38;;;;;;;;;;;26.20;75.30;;;;;;5123760;28;20137;-68
2022/07/15 14:13:05;;;;;;;;;;;26.20;75.10;;;;;;5109511;28;19987;-68
2022/07/15 14:15:32;;;;;;;;;;;26.40;76.30;;;;;;5123860;28;19919;-68
2022/07/15 14:17:58;;;;;;;;;;;26.80;75.20;;;;;;5120679;28;19920;-67
2022/07/15 14:20:26;;;;;;;;;;;27.10;74.30;;;;;;5122485;28;19980;-68
2022/07/15 14:22:54;;;;;;;;;;;27.30;74.10;;;;;;5115652;28;19958;-68
2022/07/15 14:25:21;;;;;;;;;;;27.50;73.60;;;;;;5121306;28;19920;-67
2022/07/15 14:27:48;;;;;;;;;;;27.60;73.00;;;;;;5123235;28;20199;-68
2022/07/15 14:30:15;;;;;;;;;;;27.60;72.50;;;;;;5123812;28;19986;-68
2022/07/15 14:32:42;;;;;;;;;;;27.70;73.50;;;;;;5123065;28;19981;-68